Council Bluffs, IA

1:34 AM CDT on July 04, 2015 (GMT -0500)
Mcpherson Woods | | Change Station
CLOSE
Current Station
Personal Weather Station
Location: Council Bluffs, IA
Elevation: 1138 ft
Nearby Weather Stations

Elev 1138 ft 41.26 °N, 95.82 °W | Updated 31 seconds ago

Clear
Clear
59.7 °F
Feels Like 59.7 °F
N
0.0
Wind Variable Wind from SSW
Gusts 0.0 mph

Today
High -- | Low -- °F
--% Chance of Precip.
Yesterday
High -- | Low -- °F
Precip. -- in
5:55 AM 8:59 PM
Waning Gibbous, 94% visible
Pressure 29.97 in
Visibility 10.0 miles
Clouds Few 15000 ft
Dew Point 59 °F
Humidity 98%
Rainfall 0.00 in
Snow Depth Not available.
UV 0.0 out of 12
Pollen 2.20 out of 12
Air Quality Not available.
Flu Activity Not available.
METAR KOMA 040552Z 09004KT 10SM FEW150 17/13 A2998 RMK AO2 SLP147 T01720133 10261 20172 402670133 50005

More Conditions Fewer Conditions

Pressure 29.97 in
Visibility 10.0 miles
Clouds Few 15000 ft
Dew Point 59 °F
Humidity 98%
Rainfall 0.00 in
Snow Depth Not available.
UV 0.0 out of 12
Pollen 2.20 out of 12
Air Quality Not available.
Flu Activity Not available.
METAR KOMA 040552Z 09004KT 10SM FEW150 17/13 A2998 RMK AO2 SLP147 T01720133 10261 20172 402670133 50005

More Conditions Fewer Conditions

10-Day Weather Forecast

×

Almanac

Astronomy

Jul. 04, 2015 Rise Set
Actual Time
Civil Twilight
Nautical Twilight
Astronomical Twilight
Moon
Length of Visible Light
Length of Day
Tomorrow will be .
, % of the Moon is Illuminated

Today's Extremes

State Highs State Lows

Community

WunderPhotos

Upload Photos

1,834,926 photos uploaded!

WunderBlogs® & News

Nearby

Air Quality

  Air Quality AQ Index Pollutant
Not available.

Snow Depth

Station Depth Elevation

Earthquake Activity

City Distance Mag. Time & Date
Minimum magnitude displayed is 2.5.

Coastal Water Temperatures

Place Temperature

Stations

Nearby Weather Stations

Station Location Temp. Windchill Dew Point Humidity Wind Precip. Elev Updated Type